sensor_id;sensor_type;location;lat;lon;timestamp;temperature;humidity
22194;DHT22;11262;50.308;9.270;2022-10-16T00:01:23;14.50;99.90
22194;DHT22;11262;50.308;9.270;2022-10-16T00:03:49;14.50;99.90
22194;DHT22;11262;50.308;9.270;2022-10-16T00:06:17;14.60;99.90
22194;DHT22;11262;50.308;9.270;2022-10-16T00:08:43;14.60;99.90
22194;DHT22;11262;50.308;9.270;2022-10-16T00:11:11;14.60;99.90
22194;DHT22;11262;50.308;9.270;2022-10-16T00:13:39;14.60;99.90
22194;DHT22;11262;50.308;9.270;2022-10-16T00:16:06;14.50;99.90
22194;DHT22;11262;50.308;9.270;2022-10-16T00:18:32;14.50;99.90
22194;DHT22;11262;50.308;9.270;2022-10-16T00:21:16;14.50;99.90
22194;DHT22;11262;50.308;9.270;2022-10-16T00:23:42;14.50;99.90
22194;DHT22;11262;50.308;9.270;2022-10-16T00:26:11;14.50;99.90
22194;DHT22;11262;50.308;9.270;2022-10-16T00:28:37;14.50;99.90
22194;DHT22;11262;50.308;9.270;2022-10-16T00:31:09;14.60;99.90
22194;DHT22;11262;50.308;9.270;2022-10-16T00:33:36;14.60;99.90
22194;DHT22;11262;50.308;9.270;2022-10-16T00:36:03;14.60;99.90
22194;DHT22;11262;50.308;9.270;2022-10-16T00:38:29;14.60;99.90
22194;DHT22;11262;50.308;9.270;2022-10-16T00:40:54;14.60;99.90
22194;DHT22;11262;50.308;9.270;2022-10-16T00:46:03;14.70;99.90
22194;DHT22;11262;50.308;9.270;2022-10-16T00:48:30;14.70;99.90
22194;DHT22;11262;50.308;9.270;2022-10-16T00:50:56;14.70;99.90
22194;DHT22;11262;50.308;9.270;2022-10-16T00:53:24;14.70;99.90
22194;DHT22;11262;50.308;9.270;2022-10-16T00:55:50;14.70;99.90
22194;DHT22;11262;50.308;9.270;2022-10-16T00:58:16;14.70;99.90
22194;DHT22;11262;50.308;9.270;2022-10-16T01:00:42;14.70;99.90
22194;DHT22;11262;50.308;9.270;2022-10-16T01:03:32;14.70;99.90
22194;DHT22;11262;50.308;9.270;2022-10-16T01:13:50;14.80;99.90
22194;DHT22;11262;50.308;9.270;2022-10-16T01:16:44;14.80;99.90
22194;DHT22;11262;50.308;9.270;2022-10-16T01:22:14;14.80;99.90
22194;DHT22;11262;50.308;9.270;2022-10-16T01:24:44;14.90;99.90
22194;DHT22;11262;50.308;9.270;2022-10-16T01:37:40;14.90;99.90
22194;DHT22;11262;50.308;9.270;2022-10-16T01:40:12;14.90;99.90
22194;DHT22;11262;50.308;9.270;2022-10-16T01:42:44;14.90;99.90
22194;DHT22;11262;50.308;9.270;2022-10-16T01:45:14;14.90;99.90
22194;DHT22;11262;50.308;9.270;2022-10-16T01:47:41;14.90;99.90
22194;DHT22;11262;50.308;9.270;2022-10-16T01:50:07;14.90;99.90
22194;DHT22;11262;50.308;9.270;2022-10-16T01:52:40;14.90;99.90
22194;DHT22;11262;50.308;9.270;2022-10-16T01:55:08;14.90;99.90
22194;DHT22;11262;50.308;9.270;2022-10-16T01:57:38;14.90;99.90
22194;DHT22;11262;50.308;9.270;2022-10-16T02:00:09;14.90;99.90
22194;DHT22;11262;50.308;9.270;2022-10-16T02:02:36;14.90;99.90
22194;DHT22;11262;50.308;9.270;2022-10-16T02:05:26;14.90;99.90
22194;DHT22;11262;50.308;9.270;2022-10-16T02:07:54;14.90;99.90
22194;DHT22;11262;50.308;9.270;2022-10-16T02:10:20;14.90;99.90
22194;DHT22;11262;50.308;9.270;2022-10-16T02:12:59;14.90;99.90
22194;DHT22;11262;50.308;9.270;2022-10-16T02:15:26;14.90;99.90
22194;DHT22;11262;50.308;9.270;2022-10-16T02:17:51;14.90;99.90
22194;DHT22;11262;50.308;9.270;2022-10-16T02:20:18;14.90;99.90
22194;DHT22;11262;50.308;9.270;2022-10-16T02:22:49;14.90;99.90
22194;DHT22;11262;50.308;9.270;2022-10-16T02:28:07;14.90;99.90
22194;DHT22;11262;50.308;9.270;2022-10-16T02:30:41;14.90;99.90
22194;DHT22;11262;50.308;9.270;2022-10-16T02:33:10;14.90;99.90
22194;DHT22;11262;50.308;9.270;2022-10-16T02:35:36;14.80;99.90
22194;DHT22;11262;50.308;9.270;2022-10-16T02:38:03;14.80;99.90
22194;DHT22;11262;50.308;9.270;2022-10-16T02:40:29;14.80;99.90
22194;DHT22;11262;50.308;9.270;2022-10-16T02:42:56;14.80;99.90
22194;DHT22;11262;50.308;9.270;2022-10-16T02:45:23;14.80;99.90
22194;DHT22;11262;50.308;9.270;2022-10-16T02:47:49;14.70;99.90
22194;DHT22;11262;50.308;9.270;2022-10-16T02:50:15;14.70;99.90
22194;DHT22;11262;50.308;9.270;2022-10-16T02:52:40;14.70;99.90
22194;DHT22;11262;50.308;9.270;2022-10-16T02:55:06;14.70;99.90
22194;DHT22;11262;50.308;9.270;2022-10-16T02:57:32;14.60;99.90
22194;DHT22;11262;50.308;9.270;2022-10-16T02:59:58;14.60;99.90
22194;DHT22;11262;50.308;9.270;2022-10-16T03:02:24;14.60;99.90
22194;DHT22;11262;50.308;9.270;2022-10-16T03:04:49;14.50;99.90
22194;DHT22;11262;50.308;9.270;2022-10-16T03:07:15;14.60;99.90
22194;DHT22;11262;50.308;9.270;2022-10-16T03:09:40;14.50;99.90
22194;DHT22;11262;50.308;9.270;2022-10-16T03:12:06;14.50;99.90
22194;DHT22;11262;50.308;9.270;2022-10-16T03:14:32;14.50;99.90
22194;DHT22;11262;50.308;9.270;2022-10-16T03:16:58;14.50;99.90
22194;DHT22;11262;50.308;9.270;2022-10-16T03:19:24;14.40;99.90
22194;DHT22;11262;50.308;9.270;2022-10-16T03:21:49;14.40;99.90
22194;DHT22;11262;50.308;9.270;2022-10-16T03:24:15;14.40;99.90
22194;DHT22;11262;50.308;9.270;2022-10-16T03:26:41;14.40;99.90
22194;DHT22;11262;50.308;9.270;2022-10-16T03:29:06;14.40;99.90
22194;DHT22;11262;50.308;9.270;2022-10-16T03:31:32;14.40;99.90
22194;DHT22;11262;50.308;9.270;2022-10-16T03:33:58;14.40;99.90
22194;DHT22;11262;50.308;9.270;2022-10-16T03:36:23;14.40;99.90
22194;DHT22;11262;50.308;9.270;2022-10-16T03:38:49;14.30;99.90
22194;DHT22;11262;50.308;9.270;2022-10-16T03:41:15;14.30;99.90
22194;DHT22;11262;50.308;9.270;2022-10-16T03:43:40;14.30;99.90
22194;DHT22;11262;50.308;9.270;2022-10-16T03:46:06;14.30;99.90
22194;DHT22;11262;50.308;9.270;2022-10-16T03:48:31;14.30;99.90
22194;DHT22;11262;50.308;9.270;2022-10-16T03:50:58;14.30;99.90
22194;DHT22;11262;50.308;9.270;2022-10-16T03:53:24;14.20;99.90
22194;DHT22;11262;50.308;9.270;2022-10-16T03:55:49;14.20;99.90
22194;DHT22;11262;50.308;9.270;2022-10-16T03:58:15;14.20;99.90
22194;DHT22;11262;50.308;9.270;2022-10-16T04:00:42;14.20;99.90
22194;DHT22;11262;50.308;9.270;2022-10-16T04:03:07;14.20;99.90
22194;DHT22;11262;50.308;9.270;2022-10-16T04:05:33;14.10;99.90
22194;DHT22;11262;50.308;9.270;2022-10-16T04:07:59;14.10;99.90
22194;DHT22;11262;50.308;9.270;2022-10-16T04:10:24;14.10;99.90
22194;DHT22;11262;50.308;9.270;2022-10-16T04:12:50;14.10;99.90
22194;DHT22;11262;50.308;9.270;2022-10-16T04:15:15;14.10;99.90
22194;DHT22;11262;50.308;9.270;2022-10-16T04:17:41;14.10;99.90
22194;DHT22;11262;50.308;9.270;2022-10-16T04:20:07;14.10;99.90
22194;DHT22;11262;50.308;9.270;2022-10-16T04:22:32;14.20;99.90
22194;DHT22;11262;50.308;9.270;2022-10-16T04:24:58;14.20;99.90
22194;DHT22;11262;50.308;9.270;2022-10-16T04:27:24;14.20;99.90
22194;DHT22;11262;50.308;9.270;2022-10-16T04:29:49;14.20;99.90
22194;DHT22;11262;50.308;9.270;2022-10-16T04:32:15;14.20;99.90
22194;DHT22;11262;50.308;9.270;2022-10-16T04:34:41;14.20;99.90
22194;DHT22;11262;50.308;9.270;2022-10-16T04:37:06;14.20;99.90
22194;DHT22;11262;50.308;9.270;2022-10-16T04:39:32;14.20;99.90
22194;DHT22;11262;50.308;9.270;2022-10-16T04:41:57;14.20;99.90
22194;DHT22;11262;50.308;9.270;2022-10-16T04:44:23;14.20;99.90
22194;DHT22;11262;50.308;9.270;2022-10-16T04:46:50;14.20;99.90
22194;DHT22;11262;50.308;9.270;2022-10-16T04:49:16;14.20;99.90
22194;DHT22;11262;50.308;9.270;2022-10-16T04:51:41;14.30;99.90
22194;DHT22;11262;50.308;9.270;2022-10-16T04:54:08;14.30;99.90
22194;DHT22;11262;50.308;9.270;2022-10-16T04:56:34;14.30;99.90
22194;DHT22;11262;50.308;9.270;2022-10-16T04:59:05;14.30;99.90
22194;DHT22;11262;50.308;9.270;2022-10-16T05:01:31;14.30;99.90
22194;DHT22;11262;50.308;9.270;2022-10-16T05:03:57;14.30;99.90
22194;DHT22;11262;50.308;9.270;2022-10-16T05:06:22;14.30;99.90
22194;DHT22;11262;50.308;9.270;2022-10-16T05:08:48;14.30;99.90
22194;DHT22;11262;50.308;9.270;2022-10-16T05:11:13;14.30;99.90
22194;DHT22;11262;50.308;9.270;2022-10-16T05:13:39;14.30;99.90
22194;DHT22;11262;50.308;9.270;2022-10-16T05:16:05;14.30;99.90
22194;DHT22;11262;50.308;9.270;2022-10-16T05:18:30;14.40;99.90
22194;DHT22;11262;50.308;9.270;2022-10-16T05:20:56;14.40;99.90
22194;DHT22;11262;50.308;9.270;2022-10-16T05:23:21;14.40;99.90
22194;DHT22;11262;50.308;9.270;2022-10-16T05:25:57;14.40;99.90
22194;DHT22;11262;50.308;9.270;2022-10-16T05:28:25;14.40;99.90
22194;DHT22;11262;50.308;9.270;2022-10-16T05:30:50;14.40;99.90
22194;DHT22;11262;50.308;9.270;2022-10-16T05:33:16;14.40;99.90
22194;DHT22;11262;50.308;9.270;2022-10-16T05:35:42;14.40;99.90
22194;DHT22;11262;50.308;9.270;2022-10-16T05:38:09;14.50;99.90
22194;DHT22;11262;50.308;9.270;2022-10-16T05:40:34;14.40;99.90
22194;DHT22;11262;50.308;9.270;2022-10-16T05:43:00;14.50;99.90
22194;DHT22;11262;50.308;9.270;2022-10-16T05:45:26;14.50;99.90
22194;DHT22;11262;50.308;9.270;2022-10-16T05:47:51;14.50;99.90
22194;DHT22;11262;50.308;9.270;2022-10-16T05:50:17;14.50;99.90
22194;DHT22;11262;50.308;9.270;2022-10-16T05:52:42;14.50;99.90
22194;DHT22;11262;50.308;9.270;2022-10-16T05:55:08;14.50;99.90
22194;DHT22;11262;50.308;9.270;2022-10-16T05:57:34;14.50;99.90
22194;DHT22;11262;50.308;9.270;2022-10-16T05:59:59;14.50;99.90
22194;DHT22;11262;50.308;9.270;2022-10-16T06:02:25;14.60;99.90
22194;DHT22;11262;50.308;9.270;2022-10-16T06:04:54;14.50;99.90
22194;DHT22;11262;50.308;9.270;2022-10-16T06:07:20;14.50;99.90
22194;DHT22;11262;50.308;9.270;2022-10-16T06:09:48;14.50;99.90
22194;DHT22;11262;50.308;9.270;2022-10-16T06:12:15;14.50;99.90
22194;DHT22;11262;50.308;9.270;2022-10-16T06:14:40;14.50;99.90
22194;DHT22;11262;50.308;9.270;2022-10-16T06:17:06;14.60;99.90
22194;DHT22;11262;50.308;9.270;2022-10-16T06:19:32;14.60;99.90
22194;DHT22;11262;50.308;9.270;2022-10-16T06:21:57;14.60;99.90
22194;DHT22;11262;50.308;9.270;2022-10-16T06:24:24;14.60;99.90
22194;DHT22;11262;50.308;9.270;2022-10-16T06:26:50;14.60;99.90
22194;DHT22;11262;50.308;9.270;2022-10-16T06:29:15;14.60;99.90
22194;DHT22;11262;50.308;9.270;2022-10-16T06:31:41;14.60;99.90
22194;DHT22;11262;50.308;9.270;2022-10-16T06:34:09;14.60;99.90
22194;DHT22;11262;50.308;9.270;2022-10-16T06:36:36;14.60;99.90
22194;DHT22;11262;50.308;9.270;2022-10-16T06:39:02;14.70;99.90
22194;DHT22;11262;50.308;9.270;2022-10-16T06:41:28;14.70;99.90
22194;DHT22;11262;50.308;9.270;2022-10-16T06:43:53;14.70;99.90
22194;DHT22;11262;50.308;9.270;2022-10-16T06:46:21;14.80;99.90
22194;DHT22;11262;50.308;9.270;2022-10-16T06:48:47;14.80;99.90
22194;DHT22;11262;50.308;9.270;2022-10-16T06:51:15;14.80;99.90
22194;DHT22;11262;50.308;9.270;2022-10-16T06:53:46;14.80;99.90
22194;DHT22;11262;50.308;9.270;2022-10-16T06:56:17;14.80;99.90
22194;DHT22;11262;50.308;9.270;2022-10-16T06:58:43;14.90;99.90
22194;DHT22;11262;50.308;9.270;2022-10-16T07:01:10;15.00;99.90
22194;DHT22;11262;50.308;9.270;2022-10-16T07:03:40;15.00;99.90
22194;DHT22;11262;50.308;9.270;2022-10-16T07:06:07;15.00;99.90
22194;DHT22;11262;50.308;9.270;2022-10-16T07:08:34;15.00;99.90
22194;DHT22;11262;50.308;9.270;2022-10-16T07:11:02;15.10;99.90
22194;DHT22;11262;50.308;9.270;2022-10-16T07:13:28;15.10;99.90
22194;DHT22;11262;50.308;9.270;2022-10-16T07:15:54;15.10;99.90
22194;DHT22;11262;50.308;9.270;2022-10-16T07:18:19;15.10;99.90
22194;DHT22;11262;50.308;9.270;2022-10-16T07:20:45;15.10;99.90
22194;DHT22;11262;50.308;9.270;2022-10-16T07:23:11;15.20;99.90
22194;DHT22;11262;50.308;9.270;2022-10-16T07:25:36;15.20;99.90
22194;DHT22;11262;50.308;9.270;2022-10-16T07:28:02;15.20;99.90
22194;DHT22;11262;50.308;9.270;2022-10-16T07:30:28;15.30;99.90
22194;DHT22;11262;50.308;9.270;2022-10-16T07:32:53;15.40;99.90
22194;DHT22;11262;50.308;9.270;2022-10-16T07:35:19;15.40;99.90
22194;DHT22;11262;50.308;9.270;2022-10-16T07:37:45;15.40;99.90
22194;DHT22;11262;50.308;9.270;2022-10-16T07:40:11;15.40;99.90
22194;DHT22;11262;50.308;9.270;2022-10-16T07:42:37;15.40;99.90
22194;DHT22;11262;50.308;9.270;2022-10-16T07:45:03;15.30;99.90
22194;DHT22;11262;50.308;9.270;2022-10-16T07:47:29;15.30;99.90
22194;DHT22;11262;50.308;9.270;2022-10-16T07:49:54;15.40;99.90
22194;DHT22;11262;50.308;9.270;2022-10-16T07:52:20;15.40;99.90
22194;DHT22;11262;50.308;9.270;2022-10-16T07:54:45;15.40;99.90
22194;DHT22;11262;50.308;9.270;2022-10-16T07:57:11;15.40;99.90
22194;DHT22;11262;50.308;9.270;2022-10-16T07:59:37;15.40;99.90
22194;DHT22;11262;50.308;9.270;2022-10-16T08:02:02;15.40;99.90
22194;DHT22;11262;50.308;9.270;2022-10-16T08:04:28;15.50;99.90
22194;DHT22;11262;50.308;9.270;2022-10-16T08:06:54;15.60;99.90
22194;DHT22;11262;50.308;9.270;2022-10-16T08:09:19;15.60;99.90
22194;DHT22;11262;50.308;9.270;2022-10-16T08:11:45;15.70;99.90
22194;DHT22;11262;50.308;9.270;2022-10-16T08:14:10;15.70;99.90
22194;DHT22;11262;50.308;9.270;2022-10-16T08:16:36;15.80;99.90
22194;DHT22;11262;50.308;9.270;2022-10-16T08:19:02;15.80;99.90
22194;DHT22;11262;50.308;9.270;2022-10-16T08:21:27;15.90;99.90
22194;DHT22;11262;50.308;9.270;2022-10-16T08:23:53;15.90;99.90
22194;DHT22;11262;50.308;9.270;2022-10-16T08:26:20;15.90;99.90
22194;DHT22;11262;50.308;9.270;2022-10-16T08:28:48;15.90;99.90
22194;DHT22;11262;50.308;9.270;2022-10-16T08:31:15;15.90;99.90
22194;DHT22;11262;50.308;9.270;2022-10-16T08:33:42;16.00;99.90
22194;DHT22;11262;50.308;9.270;2022-10-16T08:36:11;15.90;99.90
22194;DHT22;11262;50.308;9.270;2022-10-16T08:38:37;15.90;99.90
22194;DHT22;11262;50.308;9.270;2022-10-16T08:41:36;15.80;99.90
22194;DHT22;11262;50.308;9.270;2022-10-16T08:49:11;15.80;99.90
22194;DHT22;11262;50.308;9.270;2022-10-16T08:51:38;15.80;99.90
22194;DHT22;11262;50.308;9.270;2022-10-16T08:54:08;15.80;99.90
22194;DHT22;11262;50.308;9.270;2022-10-16T08:56:37;15.80;99.90
22194;DHT22;11262;50.308;9.270;2022-10-16T08:59:06;15.80;99.90
22194;DHT22;11262;50.308;9.270;2022-10-16T09:01:41;15.80;99.90
22194;DHT22;11262;50.308;9.270;2022-10-16T09:07:07;15.80;99.90
22194;DHT22;11262;50.308;9.270;2022-10-16T09:25:32;15.90;99.90
22194;DHT22;11262;50.308;9.270;2022-10-16T09:27:58;15.90;99.90
22194;DHT22;11262;50.308;9.270;2022-10-16T09:30:27;15.90;99.90
22194;DHT22;11262;50.308;9.270;2022-10-16T09:32:54;15.90;99.90
22194;DHT22;11262;50.308;9.270;2022-10-16T09:35:40;15.80;99.90
22194;DHT22;11262;50.308;9.270;2022-10-16T09:38:08;15.90;99.90
22194;DHT22;11262;50.308;9.270;2022-10-16T09:40:38;15.80;99.90
22194;DHT22;11262;50.308;9.270;2022-10-16T09:45:54;15.80;99.90
22194;DHT22;11262;50.308;9.270;2022-10-16T09:48:20;15.80;99.90
22194;DHT22;11262;50.308;9.270;2022-10-16T09:50:59;15.80;99.90
22194;DHT22;11262;50.308;9.270;2022-10-16T09:53:37;15.80;99.90
22194;DHT22;11262;50.308;9.270;2022-10-16T09:56:03;15.80;99.90
22194;DHT22;11262;50.308;9.270;2022-10-16T09:58:31;15.90;99.90
22194;DHT22;11262;50.308;9.270;2022-10-16T10:00:58;15.90;99.90
22194;DHT22;11262;50.308;9.270;2022-10-16T10:06:17;16.00;99.90
22194;DHT22;11262;50.308;9.270;2022-10-16T10:08:57;16.00;99.90
22194;DHT22;11262;50.308;9.270;2022-10-16T10:11:49;16.00;99.90
22194;DHT22;11262;50.308;9.270;2022-10-16T10:14:26;16.10;99.90
22194;DHT22;11262;50.308;9.270;2022-10-16T10:17:22;16.10;99.90
22194;DHT22;11262;50.308;9.270;2022-10-16T10:19:48;16.10;99.90
22194;DHT22;11262;50.308;9.270;2022-10-16T10:22:44;16.10;99.90
22194;DHT22;11262;50.308;9.270;2022-10-16T10:30:27;16.00;99.90
22194;DHT22;11262;50.308;9.270;2022-10-16T10:43:29;15.90;99.90
22194;DHT22;11262;50.308;9.270;2022-10-16T10:46:04;15.90;99.90
22194;DHT22;11262;50.308;9.270;2022-10-16T10:51:10;15.90;99.90
22194;DHT22;11262;50.308;9.270;2022-10-16T10:53:55;15.90;99.90
22194;DHT22;11262;50.308;9.270;2022-10-16T10:56:56;15.90;99.90
22194;DHT22;11262;50.308;9.270;2022-10-16T11:04:50;16.00;99.90
22194;DHT22;11262;50.308;9.270;2022-10-16T11:07:33;16.10;99.90
22194;DHT22;11262;50.308;9.270;2022-10-16T11:10:15;16.20;99.90
22194;DHT22;11262;50.308;9.270;2022-10-16T11:12:44;16.30;99.90
22194;DHT22;11262;50.308;9.270;2022-10-16T11:17:52;16.40;99.90
22194;DHT22;11262;50.308;9.270;2022-10-16T11:20:34;16.50;99.90
22194;DHT22;11262;50.308;9.270;2022-10-16T11:23:14;16.50;99.90
22194;DHT22;11262;50.308;9.270;2022-10-16T11:25:42;16.40;99.90
22194;DHT22;11262;50.308;9.270;2022-10-16T11:28:16;16.40;99.90
22194;DHT22;11262;50.308;9.270;2022-10-16T11:31:05;16.50;99.90
22194;DHT22;11262;50.308;9.270;2022-10-16T11:33:46;16.70;99.90
22194;DHT22;11262;50.308;9.270;2022-10-16T11:36:17;16.80;99.90
22194;DHT22;11262;50.308;9.270;2022-10-16T11:46:52;16.90;99.90
22194;DHT22;11262;50.308;9.270;2022-10-16T11:49:25;16.90;99.90
22194;DHT22;11262;50.308;9.270;2022-10-16T11:52:10;16.90;99.90
22194;DHT22;11262;50.308;9.270;2022-10-16T11:54:50;17.00;99.90
22194;DHT22;11262;50.308;9.270;2022-10-16T11:57:23;17.10;99.90
22194;DHT22;11262;50.308;9.270;2022-10-16T12:00:04;17.30;99.90
22194;DHT22;11262;50.308;9.270;2022-10-16T12:05:27;18.20;99.90
22194;DHT22;11262;50.308;9.270;2022-10-16T12:08:14;18.00;99.90
22194;DHT22;11262;50.308;9.270;2022-10-16T12:10:44;17.80;99.90
22194;DHT22;11262;50.308;9.270;2022-10-16T12:13:35;17.80;99.90
22194;DHT22;11262;50.308;9.270;2022-10-16T12:16:21;17.70;99.90
22194;DHT22;11262;50.308;9.270;2022-10-16T12:18:47;17.60;99.90
22194;DHT22;11262;50.308;9.270;2022-10-16T12:21:14;17.60;99.90
22194;DHT22;11262;50.308;9.270;2022-10-16T12:23:52;17.60;99.90
22194;DHT22;11262;50.308;9.270;2022-10-16T12:26:38;17.60;99.90
22194;DHT22;11262;50.308;9.270;2022-10-16T12:32:05;17.50;99.90
22194;DHT22;11262;50.308;9.270;2022-10-16T12:34:42;17.40;99.90
22194;DHT22;11262;50.308;9.270;2022-10-16T12:39:36;17.30;99.90
22194;DHT22;11262;50.308;9.270;2022-10-16T12:42:05;17.30;99.90
22194;DHT22;11262;50.308;9.270;2022-10-16T12:44:35;17.30;99.90
22194;DHT22;11262;50.308;9.270;2022-10-16T12:47:01;17.30;99.90
22194;DHT22;11262;50.308;9.270;2022-10-16T12:49:35;17.30;99.90
22194;DHT22;11262;50.308;9.270;2022-10-16T12:52:02;17.60;99.90
22194;DHT22;11262;50.308;9.270;2022-10-16T12:54:36;18.10;99.90
22194;DHT22;11262;50.308;9.270;2022-10-16T12:57:40;18.20;99.90
22194;DHT22;11262;50.308;9.270;2022-10-16T13:00:45;18.50;99.90
22194;DHT22;11262;50.308;9.270;2022-10-16T13:19:18;18.40;99.90
22194;DHT22;11262;50.308;9.270;2022-10-16T13:29:32;19.30;99.90
22194;DHT22;11262;50.308;9.270;2022-10-16T13:32:01;19.20;99.90
22194;DHT22;11262;50.308;9.270;2022-10-16T13:34:27;19.10;99.90
22194;DHT22;11262;50.308;9.270;2022-10-16T13:36:53;19.50;99.90
22194;DHT22;11262;50.308;9.270;2022-10-16T13:39:23;19.60;99.90
22194;DHT22;11262;50.308;9.270;2022-10-16T13:42:05;19.70;99.90
22194;DHT22;11262;50.308;9.270;2022-10-16T13:44:37;20.20;99.90
22194;DHT22;11262;50.308;9.270;2022-10-16T13:47:04;20.00;99.90
22194;DHT22;11262;50.308;9.270;2022-10-16T13:49:30;19.40;99.90
22194;DHT22;11262;50.308;9.270;2022-10-16T13:51:57;19.00;99.90
22194;DHT22;11262;50.308;9.270;2022-10-16T13:54:24;18.80;99.90
22194;DHT22;11262;50.308;9.270;2022-10-16T13:56:49;18.70;99.90
22194;DHT22;11262;50.308;9.270;2022-10-16T13:59:35;18.80;99.90
22194;DHT22;11262;50.308;9.270;2022-10-16T14:02:17;18.80;99.90
22194;DHT22;11262;50.308;9.270;2022-10-16T14:04:44;18.70;99.90
22194;DHT22;11262;50.308;9.270;2022-10-16T14:07:14;18.60;99.90
22194;DHT22;11262;50.308;9.270;2022-10-16T14:09:48;18.50;99.90
22194;DHT22;11262;50.308;9.270;2022-10-16T14:12:15;18.50;99.90
22194;DHT22;11262;50.308;9.270;2022-10-16T14:14:46;18.40;99.90
22194;DHT22;11262;50.308;9.270;2022-10-16T14:17:23;18.50;99.90
22194;DHT22;11262;50.308;9.270;2022-10-16T14:19:51;18.60;99.90
22194;DHT22;11262;50.308;9.270;2022-10-16T14:24:54;18.40;99.90
22194;DHT22;11262;50.308;9.270;2022-10-16T14:27:29;18.40;99.90
22194;DHT22;11262;50.308;9.270;2022-10-16T14:30:15;18.40;99.90
22194;DHT22;11262;50.308;9.270;2022-10-16T14:33:03;18.40;99.90
22194;DHT22;11262;50.308;9.270;2022-10-16T14:35:32;18.30;99.90
22194;DHT22;11262;50.308;9.270;2022-10-16T14:37:59;18.30;99.90
22194;DHT22;11262;50.308;9.270;2022-10-16T14:40:28;18.10;99.90
22194;DHT22;11262;50.308;9.270;2022-10-16T14:42:54;18.10;99.90
22194;DHT22;11262;50.308;9.270;2022-10-16T14:45:23;18.10;99.90
22194;DHT22;11262;50.308;9.270;2022-10-16T14:47:54;18.00;99.90
22194;DHT22;11262;50.308;9.270;2022-10-16T14:50:21;18.00;99.90
22194;DHT22;11262;50.308;9.270;2022-10-16T14:52:46;18.00;99.90
22194;DHT22;11262;50.308;9.270;2022-10-16T14:55:12;18.00;99.90
22194;DHT22;11262;50.308;9.270;2022-10-16T14:57:39;18.00;99.90
22194;DHT22;11262;50.308;9.270;2022-10-16T15:00:19;18.00;99.90
22194;DHT22;11262;50.308;9.270;2022-10-16T15:02:47;18.00;99.90
22194;DHT22;11262;50.308;9.270;2022-10-16T15:05:17;18.10;99.90
22194;DHT22;11262;50.308;9.270;2022-10-16T15:07:44;18.10;99.90
22194;DHT22;11262;50.308;9.270;2022-10-16T15:10:11;18.00;99.90
22194;DHT22;11262;50.308;9.270;2022-10-16T15:12:36;18.10;99.90
22194;DHT22;11262;50.308;9.270;2022-10-16T15:17:59;19.50;99.90
22194;DHT22;11262;50.308;9.270;2022-10-16T15:20:31;19.60;99.90
22194;DHT22;11262;50.308;9.270;2022-10-16T15:23:03;19.40;99.90
22194;DHT22;11262;50.308;9.270;2022-10-16T15:26:05;19.20;99.90
22194;DHT22;11262;50.308;9.270;2022-10-16T15:28:24;19.10;99.90
22194;DHT22;11262;50.308;9.270;2022-10-16T15:30:52;18.90;99.90
22194;DHT22;11262;50.308;9.270;2022-10-16T15:33:20;18.90;99.90
22194;DHT22;11262;50.308;9.270;2022-10-16T15:35:47;19.00;99.90
22194;DHT22;11262;50.308;9.270;2022-10-16T15:38:14;19.10;99.90
22194;DHT22;11262;50.308;9.270;2022-10-16T15:40:40;19.50;99.90
22194;DHT22;11262;50.308;9.270;2022-10-16T15:43:06;19.40;99.90
22194;DHT22;11262;50.308;9.270;2022-10-16T15:45:31;19.10;99.90
22194;DHT22;11262;50.308;9.270;2022-10-16T15:47:57;19.00;99.90
22194;DHT22;11262;50.308;9.270;2022-10-16T15:50:23;18.90;99.90
22194;DHT22;11262;50.308;9.270;2022-10-16T15:52:50;18.70;99.90
22194;DHT22;11262;50.308;9.270;2022-10-16T15:55:15;18.50;99.90
22194;DHT22;11262;50.308;9.270;2022-10-16T15:57:42;18.40;99.90
22194;DHT22;11262;50.308;9.270;2022-10-16T16:00:14;18.30;99.90
22194;DHT22;11262;50.308;9.270;2022-10-16T16:02:40;18.20;99.90
22194;DHT22;11262;50.308;9.270;2022-10-16T16:05:07;18.10;99.90
22194;DHT22;11262;50.308;9.270;2022-10-16T16:07:34;18.00;99.90
22194;DHT22;11262;50.308;9.270;2022-10-16T16:10:00;18.00;99.90
22194;DHT22;11262;50.308;9.270;2022-10-16T16:12:26;17.90;99.90
22194;DHT22;11262;50.308;9.270;2022-10-16T16:14:52;17.80;99.90
22194;DHT22;11262;50.308;9.270;2022-10-16T16:17:17;17.80;99.90
22194;DHT22;11262;50.308;9.270;2022-10-16T16:19:43;17.70;99.90
22194;DHT22;11262;50.308;9.270;2022-10-16T16:22:09;17.70;99.90
22194;DHT22;11262;50.308;9.270;2022-10-16T16:24:34;17.70;99.90
22194;DHT22;11262;50.308;9.270;2022-10-16T16:27:00;17.70;99.90
22194;DHT22;11262;50.308;9.270;2022-10-16T16:29:25;17.60;99.90
22194;DHT22;11262;50.308;9.270;2022-10-16T16:31:51;17.60;99.90
22194;DHT22;11262;50.308;9.270;2022-10-16T16:34:26;17.50;99.90
22194;DHT22;11262;50.308;9.270;2022-10-16T16:36:51;17.50;99.90
22194;DHT22;11262;50.308;9.270;2022-10-16T16:39:17;17.50;99.90
22194;DHT22;11262;50.308;9.270;2022-10-16T16:41:43;17.40;99.90
22194;DHT22;11262;50.308;9.270;2022-10-16T16:44:11;17.40;99.90
22194;DHT22;11262;50.308;9.270;2022-10-16T16:46:37;17.40;99.90
22194;DHT22;11262;50.308;9.270;2022-10-16T16:49:05;17.30;99.90
22194;DHT22;11262;50.308;9.270;2022-10-16T16:51:31;17.30;99.90
22194;DHT22;11262;50.308;9.270;2022-10-16T16:53:57;17.30;99.90
22194;DHT22;11262;50.308;9.270;2022-10-16T16:56:23;17.30;99.90
22194;DHT22;11262;50.308;9.270;2022-10-16T16:58:51;17.30;99.90
22194;DHT22;11262;50.308;9.270;2022-10-16T17:01:17;17.20;99.90
22194;DHT22;11262;50.308;9.270;2022-10-16T17:03:44;17.20;99.90
22194;DHT22;11262;50.308;9.270;2022-10-16T17:06:11;17.20;99.90
22194;DHT22;11262;50.308;9.270;2022-10-16T17:08:37;17.10;99.90
22194;DHT22;11262;50.308;9.270;2022-10-16T17:11:04;17.10;99.90
22194;DHT22;11262;50.308;9.270;2022-10-16T17:13:33;17.10;99.90
22194;DHT22;11262;50.308;9.270;2022-10-16T17:16:04;17.10;99.90
22194;DHT22;11262;50.308;9.270;2022-10-16T17:18:30;17.00;99.90
22194;DHT22;11262;50.308;9.270;2022-10-16T17:20:59;17.00;99.90
22194;DHT22;11262;50.308;9.270;2022-10-16T17:23:25;17.00;99.90
22194;DHT22;11262;50.308;9.270;2022-10-16T17:25:51;17.00;99.90
22194;DHT22;11262;50.308;9.270;2022-10-16T17:28:17;17.00;99.90
22194;DHT22;11262;50.308;9.270;2022-10-16T17:30:42;16.90;99.90
22194;DHT22;11262;50.308;9.270;2022-10-16T17:33:10;16.90;99.90
22194;DHT22;11262;50.308;9.270;2022-10-16T17:35:41;16.90;99.90
22194;DHT22;11262;50.308;9.270;2022-10-16T17:38:07;16.80;99.90
22194;DHT22;11262;50.308;9.270;2022-10-16T17:40:33;16.80;99.90
22194;DHT22;11262;50.308;9.270;2022-10-16T17:42:59;16.80;99.90
22194;DHT22;11262;50.308;9.270;2022-10-16T17:45:24;16.80;99.90
22194;DHT22;11262;50.308;9.270;2022-10-16T17:47:50;16.70;99.90
22194;DHT22;11262;50.308;9.270;2022-10-16T17:50:16;16.70;99.90